WJA999 KPSP-KLAX
Flight info
| Callsign | WJA999 |
|---|---|
| Flight time | 0h 32m |
| Altitude | 14000 |
| Route | PSP V388 LENHO SEAVU SEAVU2 |
| Aircraft | B737/M-SDE2E3FGHIRWXY/LB1 |
Departure
| Time | 2026-04-20 13:10 |
|---|---|
| Airport | Palm Springs International Airport (KPSP) |
Arrival
| Time | 2026-04-20 13:42 |
|---|---|
| Airport | Los Angeles International Airport (KLAX) |
| Time | Latitude | Longitude | Altitude | Speed | Heading |
|---|---|---|---|---|---|
| 2026-04-20 12:41 | 33.82275 | -116.50592 | 426 ft | 0 kts | 291° |
| 2026-04-20 12:49 | 33.82275 | -116.50591 | 426 ft | 0 kts | 291° |
| 2026-04-20 12:59 | 33.82270 | -116.50574 | 426 ft | 4 kts | 291° |
| 2026-04-20 12:59 | 33.82260 | -116.50544 | 415 ft | 4 kts | 290° |
| 2026-04-20 13:00 | 33.82255 | -116.50514 | 417 ft | 4 kts | 257° |
| 2026-04-20 13:00 | 33.82266 | -116.50489 | 410 ft | 4 kts | 233° |
| 2026-04-20 13:00 | 33.82271 | -116.50480 | 407 ft | 1 kts | 233° |
| 2026-04-20 13:02 | 33.82270 | -116.50482 | 407 ft | 1 kts | 233° |
| 2026-04-20 13:02 | 33.82267 | -116.50494 | 410 ft | 1 kts | 266° |
| 2026-04-20 13:02 | 33.82273 | -116.50503 | 411 ft | 1 kts | 316° |
| 2026-04-20 13:03 | 33.82282 | -116.50509 | 416 ft | 2 kts | 331° |
| 2026-04-20 13:03 | 33.82294 | -116.50510 | 408 ft | 3 kts | 1° |
| 2026-04-20 13:03 | 33.82323 | -116.50510 | 416 ft | 6 kts | 1° |
| 2026-04-20 13:03 | 33.82366 | -116.50525 | 419 ft | 7 kts | 327° |
| 2026-04-20 13:04 | 33.82408 | -116.50561 | 414 ft | 8 kts | 322° |
| 2026-04-20 13:04 | 33.82461 | -116.50607 | 419 ft | 11 kts | 322° |
| 2026-04-20 13:04 | 33.82534 | -116.50626 | 426 ft | 13 kts | 26° |
| 2026-04-20 13:04 | 33.82618 | -116.50659 | 424 ft | 14 kts | 324° |
| 2026-04-20 13:05 | 33.82692 | -116.50725 | 428 ft | 13 kts | 323° |
| 2026-04-20 13:05 | 33.82772 | -116.50796 | 431 ft | 16 kts | 323° |
| 2026-04-20 13:05 | 33.82864 | -116.50882 | 438 ft | 17 kts | 316° |
| 2026-04-20 13:05 | 33.82961 | -116.50975 | 432 ft | 19 kts | 323° |
| 2026-04-20 13:06 | 33.83072 | -116.51074 | 432 ft | 21 kts | 323° |
| 2026-04-20 13:06 | 33.83185 | -116.51176 | 448 ft | 20 kts | 323° |
| 2026-04-20 13:06 | 33.83296 | -116.51272 | 451 ft | 19 kts | 324° |
| 2026-04-20 13:06 | 33.83402 | -116.51368 | 459 ft | 19 kts | 323° |
| 2026-04-20 13:07 | 33.83505 | -116.51460 | 466 ft | 18 kts | 326° |
| 2026-04-20 13:07 | 33.83603 | -116.51547 | 474 ft | 17 kts | 323° |
| 2026-04-20 13:07 | 33.83710 | -116.51613 | 475 ft | 18 kts | 341° |
| 2026-04-20 13:07 | 33.83822 | -116.51691 | 477 ft | 20 kts | 324° |
| 2026-04-20 13:08 | 33.83926 | -116.51781 | 476 ft | 15 kts | 328° |
| 2026-04-20 13:08 | 33.83997 | -116.51813 | 476 ft | 5 kts | 29° |
| 2026-04-20 13:08 | 33.83999 | -116.51812 | 477 ft | 0 kts | 33° |
| 2026-04-20 13:08 | 33.84009 | -116.51801 | 475 ft | 5 kts | 47° |
| 2026-04-20 13:09 | 33.84034 | -116.51752 | 474 ft | 9 kts | 65° |
| 2026-04-20 13:09 | 33.84002 | -116.51688 | 477 ft | 12 kts | 143° |
| 2026-04-20 13:09 | 33.83777 | -116.51490 | 473 ft | 79 kts | 143° |
| 2026-04-20 13:09 | 33.83122 | -116.50909 | 437 ft | 151 kts | 145° |
| 2026-04-20 13:10 | 33.82132 | -116.50091 | 723 ft | 182 kts | 146° |
| 2026-04-20 13:10 | 33.81137 | -116.49234 | 1680 ft | 182 kts | 141° |
| 2026-04-20 13:10 | 33.80389 | -116.47865 | 1973 ft | 216 kts | 100° |
| 2026-04-20 13:10 | 33.80643 | -116.46022 | 2328 ft | 237 kts | 57° |
| 2026-04-20 13:11 | 33.81848 | -116.44653 | 3003 ft | 244 kts | 33° |
| 2026-04-20 13:11 | 33.83397 | -116.43779 | 3619 ft | 256 kts | 8° |
| 2026-04-20 13:11 | 33.85183 | -116.44108 | 4238 ft | 270 kts | 329° |
| 2026-04-20 13:11 | 33.86625 | -116.45562 | 5199 ft | 275 kts | 315° |
| 2026-04-20 13:12 | 33.87991 | -116.47206 | 6157 ft | 281 kts | 304° |
| 2026-04-20 13:12 | 33.88780 | -116.49346 | 7125 ft | 281 kts | 285° |
| 2026-04-20 13:12 | 33.89334 | -116.51620 | 8166 ft | 284 kts | 284° |
| 2026-04-20 13:12 | 33.89876 | -116.53920 | 9134 ft | 288 kts | 284° |
| 2026-04-20 13:13 | 33.90428 | -116.56222 | 10058 ft | 292 kts | 284° |
| 2026-04-20 13:13 | 33.91015 | -116.58625 | 10638 ft | 311 kts | 284° |
| 2026-04-20 13:13 | 33.91661 | -116.61234 | 10840 ft | 340 kts | 284° |
| 2026-04-20 13:13 | 33.92373 | -116.64063 | 11160 ft | 362 kts | 284° |
| 2026-04-20 13:14 | 33.93119 | -116.66995 | 11884 ft | 370 kts | 285° |
| 2026-04-20 13:14 | 33.93876 | -116.69967 | 12784 ft | 372 kts | 284° |
| 2026-04-20 13:14 | 33.94584 | -116.72981 | 13632 ft | 375 kts | 279° |
| 2026-04-20 13:14 | 33.94890 | -116.76110 | 14369 ft | 378 kts | 268° |
| 2026-04-20 13:15 | 33.94817 | -116.79285 | 15189 ft | 380 kts | 265° |
| 2026-04-20 13:15 | 33.94684 | -116.82470 | 16021 ft | 383 kts | 265° |
| 2026-04-20 13:15 | 33.94541 | -116.85694 | 16655 ft | 387 kts | 265° |
| 2026-04-20 13:15 | 33.94405 | -116.88918 | 17012 ft | 384 kts | 265° |
| 2026-04-20 13:16 | 33.94275 | -116.92191 | 17060 ft | 401 kts | 265° |
| 2026-04-20 13:16 | 33.94148 | -116.95573 | 17067 ft | 414 kts | 266° |
| 2026-04-20 13:16 | 33.94021 | -116.99082 | 17054 ft | 413 kts | 266° |
| 2026-04-20 13:16 | 33.93899 | -117.02494 | 17060 ft | 412 kts | 266° |
| 2026-04-20 13:17 | 33.93776 | -117.05937 | 17067 ft | 412 kts | 266° |
| 2026-04-20 13:17 | 33.93651 | -117.09390 | 17070 ft | 412 kts | 266° |
| 2026-04-20 13:17 | 33.93525 | -117.12840 | 17075 ft | 413 kts | 266° |
| 2026-04-20 13:17 | 33.93397 | -117.16298 | 17071 ft | 413 kts | 266° |
| 2026-04-20 13:18 | 33.93250 | -117.19748 | 17102 ft | 412 kts | 265° |
| 2026-04-20 13:18 | 33.93088 | -117.23182 | 17103 ft | 411 kts | 265° |
| 2026-04-20 13:18 | 33.92925 | -117.26625 | 17098 ft | 411 kts | 265° |
| 2026-04-20 13:18 | 33.92763 | -117.30066 | 17101 ft | 410 kts | 265° |
| 2026-04-20 13:19 | 33.92792 | -117.33499 | 17103 ft | 412 kts | 275° |
| 2026-04-20 13:19 | 33.93288 | -117.36902 | 17126 ft | 413 kts | 281° |
| 2026-04-20 13:19 | 33.94066 | -117.40219 | 17002 ft | 408 kts | 289° |
| 2026-04-20 13:19 | 33.95189 | -117.43333 | 16391 ft | 404 kts | 293° |
| 2026-04-20 13:20 | 33.96288 | -117.46380 | 15514 ft | 400 kts | 288° |
| 2026-04-20 13:20 | 33.96925 | -117.49636 | 14467 ft | 400 kts | 274° |
| 2026-04-20 13:20 | 33.97006 | -117.52960 | 13624 ft | 395 kts | 266° |
| 2026-04-20 13:20 | 33.96773 | -117.56238 | 12812 ft | 389 kts | 263° |
| 2026-04-20 13:21 | 33.96547 | -117.59475 | 12490 ft | 390 kts | 264° |
| 2026-04-20 13:21 | 33.96336 | -117.62723 | 12353 ft | 387 kts | 264° |
| 2026-04-20 13:21 | 33.96131 | -117.65961 | 12225 ft | 387 kts | 264° |
| 2026-04-20 13:21 | 33.95924 | -117.69193 | 12148 ft | 386 kts | 264° |
| 2026-04-20 13:22 | 33.95717 | -117.72405 | 12129 ft | 385 kts | 263° |
| 2026-04-20 13:22 | 33.95508 | -117.75637 | 12128 ft | 386 kts | 264° |
| 2026-04-20 13:22 | 33.95297 | -117.78866 | 12128 ft | 386 kts | 264° |
| 2026-04-20 13:22 | 33.95063 | -117.82072 | 12106 ft | 386 kts | 262° |
| 2026-04-20 13:23 | 33.94817 | -117.85259 | 12105 ft | 385 kts | 261° |
| 2026-04-20 13:23 | 33.94407 | -117.88445 | 12116 ft | 384 kts | 257° |
| 2026-04-20 13:23 | 33.93906 | -117.91606 | 12110 ft | 384 kts | 257° |
| 2026-04-20 13:23 | 33.93386 | -117.94761 | 12108 ft | 384 kts | 256° |
| 2026-04-20 13:24 | 33.92860 | -117.97920 | 12110 ft | 384 kts | 256° |
| 2026-04-20 13:24 | 33.92332 | -118.01070 | 12110 ft | 384 kts | 256° |
| 2026-04-20 13:24 | 33.91803 | -118.04214 | 12112 ft | 384 kts | 256° |
| 2026-04-20 13:24 | 33.91157 | -118.07336 | 12114 ft | 383 kts | 252° |
| 2026-04-20 13:25 | 33.90439 | -118.10381 | 12115 ft | 382 kts | 252° |
| 2026-04-20 13:25 | 33.89697 | -118.13450 | 12101 ft | 382 kts | 251° |
| 2026-04-20 13:25 | 33.88941 | -118.16552 | 12099 ft | 381 kts | 251° |
| 2026-04-20 13:25 | 33.88201 | -118.19579 | 12102 ft | 381 kts | 251° |
| 2026-04-20 13:26 | 33.87454 | -118.22624 | 12100 ft | 381 kts | 251° |
| 2026-04-20 13:26 | 33.86702 | -118.25687 | 12121 ft | 381 kts | 251° |
| 2026-04-20 13:26 | 33.85953 | -118.28736 | 12123 ft | 381 kts | 251° |
| 2026-04-20 13:26 | 33.85204 | -118.31789 | 12116 ft | 377 kts | 251° |
| 2026-04-20 13:27 | 33.84487 | -118.34724 | 12094 ft | 351 kts | 251° |
| 2026-04-20 13:27 | 33.83838 | -118.37419 | 12033 ft | 320 kts | 251° |
| 2026-04-20 13:27 | 33.83249 | -118.39903 | 11875 ft | 297 kts | 251° |
| 2026-04-20 13:27 | 33.82704 | -118.42234 | 11497 ft | 285 kts | 251° |
| 2026-04-20 13:28 | 33.82178 | -118.44495 | 10880 ft | 284 kts | 251° |
| 2026-04-20 13:28 | 33.81647 | -118.46776 | 10218 ft | 284 kts | 251° |
| 2026-04-20 13:28 | 33.81195 | -118.49100 | 9475 ft | 288 kts | 258° |
| 2026-04-20 13:28 | 33.80946 | -118.51492 | 8727 ft | 289 kts | 261° |
| 2026-04-20 13:29 | 33.80727 | -118.53899 | 7985 ft | 290 kts | 261° |
| 2026-04-20 13:29 | 33.80507 | -118.56303 | 7267 ft | 290 kts | 262° |
| 2026-04-20 13:29 | 33.80281 | -118.58710 | 6645 ft | 287 kts | 262° |
| 2026-04-20 13:29 | 33.80058 | -118.61037 | 6436 ft | 269 kts | 262° |
| 2026-04-20 13:30 | 33.79850 | -118.63201 | 6282 ft | 253 kts | 262° |
| 2026-04-20 13:30 | 33.79652 | -118.65267 | 6155 ft | 244 kts | 261° |
| 2026-04-20 13:30 | 33.79459 | -118.67266 | 6126 ft | 238 kts | 262° |
| 2026-04-20 13:30 | 33.79268 | -118.69229 | 6111 ft | 235 kts | 261° |
| 2026-04-20 13:31 | 33.79098 | -118.71182 | 6120 ft | 236 kts | 265° |
| 2026-04-20 13:31 | 33.79044 | -118.73163 | 6130 ft | 239 kts | 267° |
| 2026-04-20 13:31 | 33.79017 | -118.75112 | 6110 ft | 232 kts | 267° |
| 2026-04-20 13:31 | 33.78998 | -118.76999 | 6039 ft | 221 kts | 267° |
| 2026-04-20 13:32 | 33.79003 | -118.78829 | 5815 ft | 218 kts | 275° |
| 2026-04-20 13:32 | 33.79573 | -118.80513 | 5487 ft | 223 kts | 310° |
| 2026-04-20 13:32 | 33.80842 | -118.81553 | 5227 ft | 223 kts | 338° |
| 2026-04-20 13:32 | 33.82291 | -118.82164 | 4929 ft | 220 kts | 341° |
| 2026-04-20 13:33 | 33.83747 | -118.82740 | 4535 ft | 220 kts | 341° |
| 2026-04-20 13:33 | 33.85196 | -118.83314 | 4176 ft | 219 kts | 341° |
| 2026-04-20 13:33 | 33.86596 | -118.83870 | 4037 ft | 203 kts | 341° |
| 2026-04-20 13:33 | 33.87887 | -118.84383 | 3885 ft | 188 kts | 341° |
| 2026-04-20 13:34 | 33.89151 | -118.84812 | 3758 ft | 190 kts | 357° |
| 2026-04-20 13:34 | 33.90390 | -118.84418 | 3723 ft | 185 kts | 39° |
| 2026-04-20 13:34 | 33.91104 | -118.83178 | 3746 ft | 183 kts | 77° |
| 2026-04-20 13:34 | 33.91355 | -118.81689 | 3722 ft | 184 kts | 82° |
| 2026-04-20 13:35 | 33.91562 | -118.80175 | 3715 ft | 182 kts | 82° |
| 2026-04-20 13:35 | 33.91761 | -118.78680 | 3706 ft | 181 kts | 84° |
| 2026-04-20 13:35 | 33.91800 | -118.77179 | 3718 ft | 178 kts | 92° |
| 2026-04-20 13:35 | 33.91781 | -118.75690 | 3711 ft | 178 kts | 92° |
| 2026-04-20 13:36 | 33.91759 | -118.74197 | 3712 ft | 178 kts | 92° |
| 2026-04-20 13:36 | 33.91797 | -118.72710 | 3596 ft | 176 kts | 88° |
| 2026-04-20 13:36 | 33.91896 | -118.71240 | 3220 ft | 177 kts | 86° |
| 2026-04-20 13:36 | 33.92019 | -118.69759 | 2817 ft | 178 kts | 84° |
| 2026-04-20 13:37 | 33.92154 | -118.68279 | 2469 ft | 178 kts | 84° |
| 2026-04-20 13:37 | 33.92299 | -118.66768 | 2465 ft | 184 kts | 84° |
| 2026-04-20 13:37 | 33.92447 | -118.65283 | 2408 ft | 172 kts | 84° |
| 2026-04-20 13:37 | 33.92587 | -118.63895 | 2391 ft | 164 kts | 84° |
| 2026-04-20 13:38 | 33.92725 | -118.62541 | 2406 ft | 163 kts | 84° |
| 2026-04-20 13:38 | 33.92865 | -118.61184 | 2415 ft | 163 kts | 83° |
| 2026-04-20 13:38 | 33.93016 | -118.59829 | 2410 ft | 163 kts | 83° |
| 2026-04-20 13:38 | 33.93159 | -118.58484 | 2424 ft | 161 kts | 84° |
| 2026-04-20 13:39 | 33.93295 | -118.57141 | 2383 ft | 163 kts | 84° |
| 2026-04-20 13:39 | 33.93434 | -118.55769 | 2201 ft | 167 kts | 84° |
| 2026-04-20 13:39 | 33.93571 | -118.54407 | 1980 ft | 165 kts | 84° |
| 2026-04-20 13:39 | 33.93711 | -118.53027 | 1747 ft | 162 kts | 84° |
| 2026-04-20 13:40 | 33.93846 | -118.51691 | 1541 ft | 161 kts | 84° |
| 2026-04-20 13:40 | 33.93979 | -118.50373 | 1332 ft | 160 kts | 84° |
| 2026-04-20 13:40 | 33.94111 | -118.49079 | 1153 ft | 144 kts | 84° |
| 2026-04-20 13:40 | 33.94228 | -118.47963 | 923 ft | 129 kts | 78° |
| 2026-04-20 13:41 | 33.94376 | -118.46914 | 764 ft | 127 kts | 83° |
| 2026-04-20 13:41 | 33.94446 | -118.45846 | 613 ft | 128 kts | 82° |
| 2026-04-20 13:41 | 33.94554 | -118.44778 | 382 ft | 128 kts | 81° |
| 2026-04-20 13:41 | 33.94654 | -118.43730 | 217 ft | 125 kts | 81° |
| 2026-04-20 13:42 | 33.94771 | -118.42694 | 102 ft | 119 kts | 81° |
| 2026-04-20 13:42 | 33.94871 | -118.41578 | 95 ft | 9 kts | 82° |
| 2026-04-20 13:42 | 33.94889 | -118.41423 | 96 ft | 26 kts | 82° |
| 2026-04-20 13:43 | 33.94903 | -118.41260 | 97 ft | 12 kts | 100° |
| 2026-04-20 13:43 | 33.94836 | -118.41215 | 95 ft | 15 kts | 196° |
| 2026-04-20 13:43 | 33.94748 | -118.41290 | 95 ft | 17 kts | 180° |
| 2026-04-20 13:43 | 33.94622 | -118.41274 | 93 ft | 19 kts | 173° |
| 2026-04-20 13:44 | 33.94509 | -118.41272 | 93 ft | 13 kts | 224° |
| 2026-04-20 13:44 | 33.94510 | -118.41345 | 93 ft | 9 kts | 294° |
| 2026-04-20 13:44 | 33.94512 | -118.41405 | 93 ft | 5 kts | 262° |
| 2026-04-20 13:44 | 33.94512 | -118.41408 | 93 ft | 1 kts | 263° |
| 2026-04-20 13:45 | 33.94510 | -118.41428 | 93 ft | 4 kts | 263° |
| 2026-04-20 13:45 | 33.94510 | -118.41432 | 93 ft | 0 kts | 264° |
| 2026-04-20 13:46 | 33.94509 | -118.41436 | 93 ft | 2 kts | 263° |
| 2026-04-20 13:46 | 33.94507 | -118.41453 | 92 ft | 0 kts | 262° |